Time;durP1;ratioP1;P1;durP2;ratioP2;P2;SDS_P1;SDS_P2;PMS_P1;PMS_P2;Temp;Humidity;BMP_temperature;BMP_pressure;BME280_temperature;BME280_humidity;BME280_pressure;Samples;Min_cycle;Max_cycle;Signal;HPM_P1;HPM_P2
2023/01/26 00:01:15;;;;;;;70.70;30.07;;;;;;;-0.76;100.00;100757.91;5051026;23;20212;-66
2023/01/26 00:03:42;;;;;;;72.23;29.70;;;;;;;-0.74;100.00;100753.44;5063582;23;20307;-66
2023/01/26 00:06:11;;;;;;;77.50;30.77;;;;;;;-0.68;100.00;100763.66;5058052;23;20204;-68
2023/01/26 00:08:39;;;;;;;74.57;31.23;;;;;;;-0.58;100.00;100753.66;5043284;23;20259;-64
2023/01/26 00:11:07;;;;;;;74.67;29.90;;;;;;;-0.61;100.00;100761.59;5065937;23;20215;-65
2023/01/26 00:13:34;;;;;;;72.43;30.13;;;;;;;-0.60;100.00;100755.47;5058487;23;20374;-66
2023/01/26 00:16:02;;;;;;;75.50;30.83;;;;;;;-0.63;100.00;100753.00;5036026;23;22783;-66
2023/01/26 00:18:30;;;;;;;78.63;31.33;;;;;;;-0.61;100.00;100758.16;5062984;23;20398;-65
2023/01/26 00:20:58;;;;;;;79.13;32.43;;;;;;;-0.53;100.00;100741.22;5037452;23;20310;-65
2023/01/26 00:23:24;;;;;;;78.17;31.90;;;;;;;-0.50;100.00;100748.94;5061673;23;20278;-67
2023/01/26 00:25:51;;;;;;;80.90;31.50;;;;;;;-0.54;100.00;100743.91;5055934;23;20211;-66
2023/01/26 00:28:18;;;;;;;77.97;31.33;;;;;;;-0.54;100.00;100744.78;5063491;23;21140;-65
2023/01/26 00:30:44;;;;;;;75.70;31.87;;;;;;;-0.54;100.00;100749.13;5042022;23;20227;-65
2023/01/26 00:33:11;;;;;;;75.20;30.80;;;;;;;-0.54;100.00;100742.16;5071887;23;21226;-66
2023/01/26 00:35:38;;;;;;;78.50;31.20;;;;;;;-0.56;100.00;100746.59;5055914;23;24411;-67
2023/01/26 00:38:04;;;;;;;75.07;32.00;;;;;;;-0.53;100.00;100746.47;5080389;23;20268;-66
2023/01/26 00:40:31;;;;;;;80.83;31.33;;;;;;;-0.53;100.00;100738.63;5062558;23;20780;-68
2023/01/26 00:42:58;;;;;;;82.33;31.47;;;;;;;-0.48;100.00;100741.88;5057623;23;20786;-67
2023/01/26 00:45:24;;;;;;;79.70;32.57;;;;;;;-0.46;100.00;100736.59;5079190;23;20250;-66
2023/01/26 00:47:51;;;;;;;82.33;32.60;;;;;;;-0.48;100.00;100744.50;5073007;23;22952;-68
2023/01/26 00:50:17;;;;;;;79.30;31.30;;;;;;;-0.48;100.00;100725.34;5054330;23;22395;-66
2023/01/26 00:52:44;;;;;;;76.37;30.70;;;;;;;-0.48;100.00;100728.81;5063908;23;22836;-65
2023/01/26 00:55:10;;;;;;;75.83;31.47;;;;;;;-0.48;100.00;100731.41;5056498;23;20210;-67
2023/01/26 00:57:38;;;;;;;72.00;31.63;;;;;;;-0.47;100.00;100730.53;5034841;23;24998;-68
2023/01/26 01:00:05;;;;;;;76.40;32.37;;;;;;;-0.46;100.00;100721.75;5076527;23;20235;-65
2023/01/26 01:02:32;;;;;;;72.47;30.73;;;;;;;-0.40;100.00;100725.84;5066028;23;20223;-67
2023/01/26 01:04:58;;;;;;;84.97;33.23;;;;;;;-0.47;100.00;100735.75;5049415;23;20701;-66
2023/01/26 01:07:24;;;;;;;69.37;29.53;;;;;;;-0.49;100.00;100731.50;5061589;23;20336;-66
2023/01/26 01:09:51;;;;;;;71.30;29.87;;;;;;;-0.48;100.00;100733.19;5052526;23;21343;-66
2023/01/26 01:12:17;;;;;;;75.03;31.83;;;;;;;-0.50;100.00;100730.63;5054390;23;22343;-66
2023/01/26 01:14:44;;;;;;;78.63;31.90;;;;;;;-0.53;100.00;100733.38;5055749;23;20207;-66
2023/01/26 01:17:14;;;;;;;84.63;32.53;;;;;;;-0.44;100.00;100732.16;5065246;23;20240;-65
2023/01/26 01:19:40;;;;;;;77.37;32.47;;;;;;;-0.47;100.00;100721.81;5050050;23;20287;-67
2023/01/26 01:22:07;;;;;;;79.30;32.00;;;;;;;-0.39;100.00;100718.88;5051797;23;20506;-67
2023/01/26 01:24:34;;;;;;;73.33;31.33;;;;;;;-0.38;100.00;100717.94;5059141;23;20286;-65
2023/01/26 01:27:00;;;;;;;71.27;30.60;;;;;;;-0.48;100.00;100704.44;5055910;23;21642;-65
2023/01/26 01:29:27;;;;;;;75.60;31.43;;;;;;;-0.44;100.00;100699.00;5053755;23;20211;-66
2023/01/26 01:31:54;;;;;;;76.43;30.93;;;;;;;-0.43;100.00;100685.00;5061698;23;20264;-67
2023/01/26 01:34:20;;;;;;;81.13;33.20;;;;;;;-0.42;100.00;100693.72;5061636;23;20486;-67
2023/01/26 01:36:47;;;;;;;78.43;31.23;;;;;;;-0.29;100.00;100691.38;5050876;23;21292;-66
2023/01/26 01:39:13;;;;;;;78.90;32.33;;;;;;;-0.41;100.00;100686.72;5064835;23;20208;-66
2023/01/26 01:41:40;;;;;;;75.73;31.07;;;;;;;-0.41;100.00;100679.72;5058865;23;20349;-67
2023/01/26 01:44:13;;;;;;;73.57;30.97;;;;;;;-0.45;100.00;100676.38;5055067;23;20700;-66
2023/01/26 01:46:44;;;;;;;79.07;33.63;;;;;;;-0.43;100.00;100674.53;5056983;23;20747;-64
2023/01/26 01:49:20;;;;;;;77.43;30.80;;;;;;;-0.51;100.00;100663.59;5051770;23;21049;-70
2023/01/26 01:51:51;;;;;;;77.77;30.93;;;;;;;-0.57;100.00;100661.25;5061365;23;20326;-69
2023/01/26 01:54:22;;;;;;;72.63;32.97;;;;;;;-0.50;100.00;100660.06;5078196;23;20831;-68
2023/01/26 01:56:51;;;;;;;77.30;32.53;;;;;;;-0.39;100.00;100663.97;5044686;23;20212;-69
2023/01/26 01:59:20;;;;;;;78.33;31.07;;;;;;;-0.38;100.00;100648.19;5057523;23;21720;-69
2023/01/26 02:01:48;;;;;;;77.90;32.40;;;;;;;-0.41;100.00;100648.34;5060316;23;20287;-69
2023/01/26 02:04:15;;;;;;;85.33;32.40;;;;;;;-0.41;100.00;100650.13;5067533;23;21288;-68
2023/01/26 02:06:46;;;;;;;73.73;32.87;;;;;;;-0.47;100.00;100652.09;5074663;23;21138;-69
2023/01/26 02:10:17;;;;;;;81.57;31.40;;;;;;;-0.43;100.00;100652.78;5054001;23;20212;-68
2023/01/26 02:12:01;;;;;;;74.77;32.07;;;;;;;-0.43;100.00;100650.19;5079166;23;20326;-67
2023/01/26 02:14:28;;;;;;;80.00;31.60;;;;;;;-0.51;100.00;100653.16;5087243;23;20242;-69
2023/01/26 02:16:54;;;;;;;74.63;31.87;;;;;;;-0.54;100.00;100642.84;5081429;23;20207;-68
2023/01/26 02:19:29;;;;;;;73.50;32.43;;;;;;;-0.47;100.00;100641.63;5063086;23;23024;-68
2023/01/26 02:21:59;;;;;;;76.17;29.73;;;;;;;-0.53;100.00;100641.91;5046627;23;21531;-69
2023/01/26 02:24:28;;;;;;;75.20;30.97;;;;;;;-0.49;100.00;100635.63;5050576;23;20583;-68
2023/01/26 02:26:55;;;;;;;77.57;32.60;;;;;;;-0.43;100.00;100637.94;5058168;23;20255;-68
2023/01/26 02:29:22;;;;;;;72.97;31.43;;;;;;;-0.17;100.00;100632.44;5087938;23;22233;-68
2023/01/26 02:31:48;;;;;;;76.87;31.93;;;;;;;-0.28;100.00;100631.19;5068337;23;21020;-70
2023/01/26 02:34:15;;;;;;;81.97;32.40;;;;;;;-0.47;100.00;100625.97;5075519;23;20278;-67
2023/01/26 02:36:41;;;;;;;79.70;31.67;;;;;;;-0.53;100.00;100630.59;5063628;23;20997;-69
2023/01/26 02:39:11;;;;;;;77.87;32.53;;;;;;;-0.37;100.00;100620.31;5082132;23;20274;-68
2023/01/26 02:44:26;;;;;;;79.40;31.77;;;;;;;-0.30;100.00;100625.19;5052240;23;20200;-68
2023/01/26 02:46:53;;;;;;;75.50;32.57;;;;;;;-0.48;100.00;100629.47;5042123;23;21251;-66
2023/01/26 02:52:05;;;;;;;79.83;32.63;;;;;;;-0.43;100.00;100619.66;5077564;23;20289;-67
2023/01/26 02:57:17;;;;;;;81.67;33.03;;;;;;;-0.54;100.00;100613.22;5060527;23;20333;-67
2023/01/26 02:59:43;;;;;;;85.90;33.40;;;;;;;-0.59;100.00;100600.34;5081015;23;20271;-70
2023/01/26 03:02:10;;;;;;;76.73;32.37;;;;;;;-0.55;100.00;100593.25;5061562;23;20743;-69
2023/01/26 03:04:37;;;;;;;81.87;32.03;;;;;;;-0.58;100.00;100590.78;5051996;23;20207;-68
2023/01/26 03:07:03;;;;;;;81.00;32.43;;;;;;;-0.51;100.00;100590.41;5058678;23;20446;-69
2023/01/26 03:09:30;;;;;;;77.33;31.90;;;;;;;-0.39;100.00;100590.78;5062752;23;21799;-68
2023/01/26 03:11:57;;;;;;;77.50;32.20;;;;;;;-0.40;100.00;100589.91;5069325;23;20267;-69
2023/01/26 03:14:23;;;;;;;77.53;32.20;;;;;;;-0.46;100.00;100584.97;5053218;23;20267;-68
2023/01/26 03:16:50;;;;;;;78.70;32.83;;;;;;;-0.48;100.00;100590.25;5059045;23;20204;-70
2023/01/26 03:27:44;;;;;;;85.83;33.70;;;;;;;-0.49;100.00;100569.44;5068948;23;20329;-69
2023/01/26 03:30:11;;;;;;;84.80;32.97;;;;;;;-0.44;100.00;100563.06;5055515;23;20242;-69
2023/01/26 03:32:38;;;;;;;75.57;31.93;;;;;;;-0.36;100.00;100567.09;5060242;23;20200;-70
2023/01/26 03:35:06;;;;;;;78.53;32.10;;;;;;;-0.53;100.00;100558.25;5046569;23;20212;-67
2023/01/26 03:37:35;;;;;;;84.97;34.03;;;;;;;-0.51;100.00;100561.66;5056629;23;20204;-69
2023/01/26 03:56:37;;;;;;;85.50;33.53;;;;;;;-0.38;100.00;100548.84;5059733;23;20255;-69
2023/01/26 03:59:08;;;;;;;89.90;34.53;;;;;;;-0.36;100.00;100539.16;5063877;23;21158;-69
2023/01/26 04:01:36;;;;;;;84.07;32.93;;;;;;;-0.34;100.00;100544.34;5034973;23;20337;-70
2023/01/26 04:09:36;;;;;;;85.67;31.73;;;;;;;-0.43;100.00;100537.75;5058921;23;20666;-67
2023/01/26 04:12:04;;;;;;;88.53;32.30;;;;;;;-0.38;100.00;100529.72;5066704;23;20200;-68
2023/01/26 04:22:52;;;;;;;90.97;32.67;;;;;;;-0.37;100.00;100532.25;5064724;23;20211;-69
2023/01/26 04:25:20;;;;;;;78.37;30.83;;;;;;;-0.35;100.00;100534.78;5061468;23;20216;-69
2023/01/26 04:27:46;;;;;;;92.70;32.97;;;;;;;-0.37;100.00;100541.88;5062220;23;20382;-68
2023/01/26 04:30:14;;;;;;;83.00;31.33;;;;;;;-0.32;100.00;100539.88;5061290;23;21203;-70
2023/01/26 04:32:41;;;;;;;83.17;32.60;;;;;;;-0.22;100.00;100543.75;5061581;23;20207;-69
2023/01/26 04:35:08;;;;;;;88.53;33.37;;;;;;;-0.37;100.00;100539.25;5055016;23;20215;-72
2023/01/26 04:37:35;;;;;;;90.57;32.50;;;;;;;-0.36;100.00;100539.16;5063860;23;20328;-70
2023/01/26 04:40:03;;;;;;;86.20;33.30;;;;;;;-0.36;100.00;100539.16;5060030;23;20417;-70
2023/01/26 04:42:29;;;;;;;81.80;31.20;;;;;;;-0.16;100.00;100534.78;5039485;23;21197;-69
2023/01/26 04:44:56;;;;;;;93.00;34.27;;;;;;;-0.25;100.00;100530.81;5055815;23;20286;-71
2023/01/26 04:47:22;;;;;;;78.77;31.13;;;;;;;-0.20;100.00;100539.28;5059776;23;20200;-69
2023/01/26 04:49:49;;;;;;;85.10;30.83;;;;;;;-0.20;100.00;100535.84;5051671;23;20215;-70
2023/01/26 04:52:15;;;;;;;83.93;32.57;;;;;;;-0.22;100.00;100541.13;5059324;23;22253;-69
2023/01/26 04:54:42;;;;;;;82.77;33.00;;;;;;;-0.15;100.00;100539.91;5067246;23;20259;-68
2023/01/26 04:57:08;;;;;;;74.30;31.03;;;;;;;-0.13;100.00;100534.63;5064662;23;20204;-70
2023/01/26 04:59:35;;;;;;;84.60;32.23;;;;;;;-0.10;100.00;100535.28;5039401;23;20394;-68
2023/01/26 05:02:02;;;;;;;82.90;31.97;;;;;;;-0.01;100.00;100527.00;5057383;23;20212;-68
2023/01/26 05:04:29;;;;;;;80.57;31.33;;;;;;;-0.03;100.00;100521.00;5061470;23;21571;-70
2023/01/26 05:06:55;;;;;;;80.20;32.23;;;;;;;-0.12;100.00;100524.06;5051574;23;20322;-69
2023/01/26 05:09:22;;;;;;;89.03;33.03;;;;;;;-0.13;100.00;100525.00;5078311;23;20280;-70
2023/01/26 05:11:48;;;;;;;86.40;33.20;;;;;;;-0.15;100.00;100520.75;5063365;23;21400;-70
2023/01/26 05:14:15;;;;;;;84.47;32.57;;;;;;;-0.16;100.00;100525.16;5053154;23;20216;-71
2023/01/26 05:16:41;;;;;;;93.50;32.23;;;;;;;-0.20;100.00;100520.97;5043564;23;20211;-70
2023/01/26 05:19:08;;;;;;;78.83;32.13;;;;;;;-0.08;100.00;100528.22;5065092;23;20208;-68
2023/01/26 05:21:34;;;;;;;82.27;32.40;;;;;;;-0.07;100.00;100516.84;5078373;23;20204;-68
2023/01/26 05:24:01;;;;;;;87.53;32.43;;;;;;;-0.08;100.00;100520.38;5059822;23;20623;-70
2023/01/26 05:26:28;;;;;;;76.87;30.73;;;;;;;-0.05;100.00;100515.03;5068183;23;20200;-70
2023/01/26 05:28:54;;;;;;;121.27;43.00;;;;;;;-0.19;100.00;100513.97;5058058;23;20216;-70
2023/01/26 05:31:21;;;;;;;87.43;32.63;;;;;;;-0.18;100.00;100520.91;5049591;23;20285;-69
2023/01/26 05:33:47;;;;;;;82.43;31.80;;;;;;;-0.24;100.00;100522.03;5064832;23;20199;-69
2023/01/26 05:36:14;;;;;;;81.73;32.20;;;;;;;-0.18;100.00;100506.06;5062959;23;26549;-70
2023/01/26 05:38:41;;;;;;;75.87;30.37;;;;;;;-0.13;100.00;100511.91;5057055;23;20279;-71
2023/01/26 05:41:07;;;;;;;74.27;30.83;;;;;;;-0.28;100.00;100510.03;5077396;23;20207;-71
2023/01/26 05:43:34;;;;;;;80.03;32.10;;;;;;;-0.35;100.00;100513.88;5078927;23;20282;-69
2023/01/26 05:46:00;;;;;;;80.83;31.30;;;;;;;-0.33;100.00;100512.91;5038577;23;20208;-71
2023/01/26 05:48:27;;;;;;;75.10;31.03;;;;;;;-0.32;100.00;100509.34;5061657;23;20369;-70
2023/01/26 05:50:55;;;;;;;76.27;30.50;;;;;;;-0.33;100.00;100507.66;5055471;23;20204;-70
2023/01/26 05:53:22;;;;;;;77.10;29.70;;;;;;;-0.35;100.00;100509.50;5067193;23;20208;-70
2023/01/26 05:55:48;;;;;;;77.30;29.60;;;;;;;-0.29;100.00;100518.81;5057546;23;20204;-70
2023/01/26 05:58:15;;;;;;;70.83;29.57;;;;;;;-0.30;100.00;100520.59;5061628;23;20219;-69
2023/01/26 06:00:41;;;;;;;73.13;29.37;;;;;;;-0.31;100.00;100523.25;5054637;23;20214;-69
2023/01/26 06:03:08;;;;;;;70.67;29.70;;;;;;;-0.31;100.00;100525.88;5065359;23;20215;-69
2023/01/26 06:05:34;;;;;;;74.40;30.30;;;;;;;-0.30;100.00;100522.34;5062175;23;20211;-70
2023/01/26 06:08:01;;;;;;;76.23;30.07;;;;;;;-0.22;100.00;100522.81;5061174;23;20263;-70
2023/01/26 06:10:27;;;;;;;77.20;30.80;;;;;;;-0.09;100.00;100529.16;5060637;23;20479;-71
2023/01/26 06:12:54;;;;;;;77.13;29.47;;;;;;;-0.18;100.00;100519.16;5056931;23;20219;-69
2023/01/26 06:15:20;;;;;;;74.17;29.63;;;;;;;-0.03;100.00;100521.00;5095908;23;20228;-69
2023/01/26 06:17:47;;;;;;;71.00;28.90;;;;;;;-0.02;100.00;100524.47;5057034;23;20370;-70
2023/01/26 06:20:14;;;;;;;72.40;29.63;;;;;;;-0.19;100.00;100522.66;5054334;23;20239;-74
2023/01/26 06:22:40;;;;;;;80.23;30.83;;;;;;;-0.19;100.00;100520.03;5052808;23;21393;-72
2023/01/26 06:25:07;;;;;;;82.07;31.77;;;;;;;-0.22;100.00;100523.66;5067025;23;20208;-68
2023/01/26 06:27:34;;;;;;;75.07;30.17;;;;;;;-0.12;100.00;100513.59;5071407;23;20218;-68
2023/01/26 06:30:04;;;;;;;71.97;28.53;;;;;;;-0.20;100.00;100513.13;5088408;23;20204;-69
2023/01/26 06:32:30;;;;;;;86.07;31.13;;;;;;;-0.29;100.00;100510.97;5067108;23;20936;-67
2023/01/26 06:34:57;;;;;;;85.17;32.77;;;;;;;-0.24;100.00;100514.19;5051716;23;20307;-67
2023/01/26 06:37:23;;;;;;;83.90;31.73;;;;;;;-0.22;100.00;100515.81;5064511;23;21297;-69
2023/01/26 06:39:50;;;;;;;89.90;33.73;;;;;;;-0.24;100.00;100516.81;5074430;23;20272;-68
2023/01/26 06:42:16;;;;;;;90.87;33.57;;;;;;;-0.23;100.00;100510.69;5057805;23;20207;-68
2023/01/26 06:44:43;;;;;;;90.03;34.23;;;;;;;-0.21;100.00;100514.06;5056458;23;20204;-69
2023/01/26 06:47:11;;;;;;;97.53;33.90;;;;;;;-0.26;100.00;100513.44;5061678;23;20270;-70
2023/01/26 06:49:38;;;;;;;92.27;35.13;;;;;;;-0.31;100.00;100507.56;5070044;23;20235;-73
2023/01/26 06:52:22;;;;;;;96.73;34.40;;;;;;;-0.28;100.00;100503.06;5061713;23;20305;-71
2023/01/26 06:54:49;;;;;;;94.47;34.37;;;;;;;-0.23;100.00;100502.84;5062148;23;21696;-70
2023/01/26 06:57:16;;;;;;;94.57;34.67;;;;;;;-0.32;100.00;100495.44;5062624;23;20268;-70
2023/01/26 06:59:42;;;;;;;90.83;34.87;;;;;;;-0.55;100.00;100489.53;5062770;23;22227;-74
2023/01/26 07:02:20;;;;;;;88.13;33.43;;;;;;;-0.50;100.00;100491.94;5064517;23;20255;-73
2023/01/26 07:04:47;;;;;;;95.73;34.17;;;;;;;-0.23;100.00;100503.69;5053840;23;21170;-73
2023/01/26 07:07:14;;;;;;;98.93;35.47;;;;;;;-0.34;100.00;100499.88;5047240;23;20211;-73
2023/01/26 07:09:40;;;;;;;96.27;34.20;;;;;;;-0.22;100.00;100504.53;5063452;23;20658;-70
2023/01/26 07:12:08;;;;;;;97.97;35.10;;;;;;;-0.35;100.00;100498.19;5064048;23;22883;-70
2023/01/26 07:14:35;;;;;;;86.73;33.63;;;;;;;-0.34;100.00;100500.72;5060813;23;20629;-73
2023/01/26 07:17:01;;;;;;;92.80;33.70;;;;;;;-0.27;100.00;100503.91;5068894;23;20213;-72
2023/01/26 07:19:30;;;;;;;91.00;31.57;;;;;;;-0.17;100.00;100497.28;5071841;23;20326;-72
2023/01/26 07:21:56;;;;;;;90.03;31.17;;;;;;;-0.35;100.00;100498.19;5066694;23;20247;-69
2023/01/26 07:24:23;;;;;;;84.47;31.40;;;;;;;-0.43;100.00;100486.31;5041482;23;20391;-70
2023/01/26 07:26:50;;;;;;;81.20;31.40;;;;;;;-0.40;100.00;100489.72;5064621;23;20754;-71
2023/01/26 07:29:17;;;;;;;85.53;30.93;;;;;;;-0.44;100.00;100497.72;5066111;23;20402;-68
2023/01/26 07:31:43;;;;;;;86.30;30.23;;;;;;;-0.40;100.00;100487.09;5068533;23;20724;-70
2023/01/26 07:34:10;;;;;;;71.37;28.73;;;;;;;-0.29;100.00;100492.66;5068445;23;20207;-69
2023/01/26 07:36:37;;;;;;;78.17;28.77;;;;;;;-0.15;100.00;100495.44;5066117;23;20211;-70
2023/01/26 07:39:05;;;;;;;75.30;30.00;;;;;;;-0.28;100.00;100489.13;5056784;23;20213;-72
2023/01/26 07:41:34;;;;;;;75.07;28.37;;;;;;;-0.20;100.00;100481.75;5064431;23;20219;-71
2023/01/26 07:44:00;;;;;;;77.27;29.70;;;;;;;-0.28;100.00;100482.13;5071014;23;20217;-70
2023/01/26 07:46:27;;;;;;;79.43;28.87;;;;;;;-0.46;100.00;100477.78;5058677;23;20215;-70
2023/01/26 07:48:54;;;;;;;68.60;28.30;;;;;;;-0.48;100.00;100474.41;5065694;23;25882;-70
2023/01/26 07:51:20;;;;;;;73.17;27.33;;;;;;;-0.44;100.00;100479.41;5068751;23;20276;-74
2023/01/26 07:53:48;;;;;;;72.73;27.83;;;;;;;-0.10;100.00;100488.22;5057063;23;20235;-67
2023/01/26 07:56:18;;;;;;;77.10;27.67;;;;;;;-0.16;100.00;100487.69;5082892;23;22123;-74
2023/01/26 07:58:52;;;;;;;64.37;25.43;;;;;;;-0.20;100.00;100484.38;5072203;23;21243;-70
2023/01/26 08:01:19;;;;;;;69.23;25.87;;;;;;;-0.29;100.00;100493.50;5088054;23;20227;-69
2023/01/26 08:03:49;;;;;;;59.00;26.07;;;;;;;-0.30;100.00;100490.97;5053449;23;20212;-70
2023/01/26 08:06:17;;;;;;;68.70;25.37;;;;;;;-0.31;100.00;100484.88;5073034;23;20263;-72
2023/01/26 08:08:45;;;;;;;69.33;25.67;;;;;;;0.58;100.00;100495.28;5081481;23;20276;-74
2023/01/26 08:11:12;;;;;;;67.33;25.77;;;;;;;0.05;100.00;100491.00;5066284;23;21174;-77
2023/01/26 08:13:38;;;;;;;68.67;25.33;;;;;;;-0.11;100.00;100481.31;5079058;22;20939;-74
2023/01/26 08:16:10;;;;;;;59.03;24.40;;;;;;;-0.16;100.00;100483.31;5047341;23;20376;-72
2023/01/26 08:18:39;;;;;;;61.03;23.17;;;;;;;0.05;100.00;100486.63;5059400;23;20493;-70
2023/01/26 08:21:05;;;;;;;61.03;21.50;;;;;;;0.57;100.00;100493.59;5072223;23;20212;-70
2023/01/26 08:23:32;;;;;;;55.37;23.23;;;;;;;0.56;98.87;100486.66;5096552;23;20222;-76
2023/01/26 08:26:10;;;;;;;54.63;22.07;;;;;;;0.44;99.23;100487.28;5074222;23;20215;-70
2023/01/26 08:28:37;;;;;;;57.27;22.57;;;;;;;-0.09;100.00;100486.47;5074938;23;23010;-72
2023/01/26 08:31:05;;;;;;;50.10;21.07;;;;;;;-0.08;100.00;100485.53;5057800;23;20212;-67
2023/01/26 08:33:32;;;;;;;48.60;20.27;;;;;;;-0.09;100.00;100482.09;5052864;23;20210;-67
2023/01/26 08:36:03;;;;;;;53.90;20.33;;;;;;;0.11;100.00;100477.63;5057800;23;22215;-68
2023/01/26 08:38:31;;;;;;;63.57;22.07;;;;;;;-0.05;100.00;100472.28;5077384;23;22213;-67
2023/01/26 08:40:58;;;;;;;51.23;20.17;;;;;;;-0.05;100.00;100475.78;5061623;23;20299;-70
2023/01/26 08:43:24;;;;;;;51.87;21.10;;;;;;;0.17;100.00;100479.94;5057318;23;21375;-70
2023/01/26 08:45:51;;;;;;;51.00;19.17;;;;;;;0.25;100.00;100483.00;5077451;23;20217;-72
2023/01/26 08:48:17;;;;;;;52.77;19.00;;;;;;;0.24;98.88;100494.41;5070517;23;20242;-69
2023/01/26 08:50:45;;;;;;;46.70;19.30;;;;;;;0.19;98.77;100488.56;5066908;23;20451;-69
2023/01/26 08:53:12;;;;;;;44.10;18.30;;;;;;;0.23;98.84;100489.22;5063394;23;20275;-68
2023/01/26 08:55:38;;;;;;;43.40;18.30;;;;;;;0.34;97.78;100495.63;5073017;23;20373;-69
2023/01/26 08:58:05;;;;;;;47.10;19.53;;;;;;;0.30;97.58;100488.84;5083312;23;20203;-70
2023/01/26 09:00:32;;;;;;;49.13;20.10;;;;;;;0.48;96.78;100494.06;5075963;23;20291;-71
2023/01/26 09:03:00;;;;;;;47.60;18.27;;;;;;;0.38;95.40;100499.78;5082030;23;21319;-71
2023/01/26 09:05:30;;;;;;;41.53;18.23;;;;;;;0.53;95.04;100502.53;5066871;23;20203;-70
2023/01/26 09:07:57;;;;;;;37.07;17.07;;;;;;;0.60;94.53;100503.91;5068116;23;20211;-71
2023/01/26 09:10:23;;;;;;;47.60;18.40;;;;;;;0.92;93.10;100501.38;5087543;23;21882;-70
2023/01/26 09:12:50;;;;;;;43.60;17.10;;;;;;;0.98;91.60;100506.25;5069677;23;20213;-68
2023/01/26 09:15:16;;;;;;;44.57;17.87;;;;;;;0.46;93.56;100506.38;5065684;23;21329;-70
2023/01/26 09:17:43;;;;;;;40.60;17.77;;;;;;;0.48;94.32;100510.63;5077745;23;20203;-70
2023/01/26 09:20:10;;;;;;;33.57;15.37;;;;;;;0.44;93.12;100513.47;5074755;23;20211;-69
2023/01/26 09:22:37;;;;;;;36.70;15.57;;;;;;;0.37;93.81;100503.28;5073298;23;20207;-68
2023/01/26 09:25:04;;;;;;;33.57;15.67;;;;;;;0.32;93.46;100513.16;5099741;23;20332;-71
2023/01/26 09:27:31;;;;;;;38.77;15.87;;;;;;;0.33;93.42;100517.50;5082555;23;21652;-69
2023/01/26 09:29:58;;;;;;;33.17;14.83;;;;;;;0.37;92.58;100508.53;5089483;23;20246;-70
2023/01/26 09:32:25;;;;;;;38.77;16.10;;;;;;;0.16;93.46;100509.63;5084666;23;20199;-71
2023/01/26 09:34:51;;;;;;;33.90;15.27;;;;;;;0.29;92.81;100505.47;5094105;23;20674;-69
2023/01/26 09:37:18;;;;;;;39.33;14.77;;;;;;;0.38;93.27;100502.38;5069831;23;25498;-70
2023/01/26 09:39:44;;;;;;;43.00;16.10;;;;;;;0.39;92.74;100490.16;5094021;23;20203;-69
2023/01/26 09:42:24;;;;;;;36.40;16.43;;;;;;;0.35;92.64;100496.44;5101283;23;20307;-69
2023/01/26 09:45:08;;;;;;;37.30;15.43;;;;;;;0.40;92.37;100497.94;5062795;23;21213;-71
2023/01/26 09:47:44;;;;;;;34.87;15.50;;;;;;;0.40;92.48;100486.63;5072183;23;20430;-68
2023/01/26 09:50:15;;;;;;;35.70;14.60;;;;;;;0.47;91.47;100497.59;5078877;23;20213;-68
2023/01/26 09:52:57;;;;;;;30.83;14.10;;;;;;;0.22;91.54;100498.84;5060074;23;22169;-70
2023/01/26 09:55:25;;;;;;;33.30;13.83;;;;;;;0.21;92.21;100489.28;5085517;23;20203;-68
2023/01/26 09:57:59;;;;;;;33.13;15.07;;;;;;;0.12;92.76;100488.00;5073654;23;21752;-71
2023/01/26 10:00:25;;;;;;;33.23;14.73;;;;;;;-0.05;93.85;100483.63;5070842;23;20308;-70
2023/01/26 10:03:04;;;;;;;31.83;14.43;;;;;;;0.12;93.35;100481.94;5069669;23;20204;-69
2023/01/26 10:05:39;;;;;;;29.17;13.83;;;;;;;0.17;92.82;100480.78;5114199;23;20241;-68
2023/01/26 10:08:14;;;;;;;35.70;15.17;;;;;;;0.16;92.52;100478.22;5059746;23;25940;-69
2023/01/26 10:10:47;;;;;;;33.17;15.17;;;;;;;0.29;92.32;100468.84;5068365;23;20652;-70
2023/01/26 10:13:15;;;;;;;36.87;14.90;;;;;;;0.40;91.77;100463.06;5062315;23;20262;-69
2023/01/26 10:15:43;;;;;;;31.90;13.83;;;;;;;0.52;90.60;100458.94;5071657;23;20389;-69
2023/01/26 10:18:17;;;;;;;32.60;14.70;;;;;;;0.45;90.82;100473.28;5099439;23;22287;-69
2023/01/26 10:20:53;;;;;;;27.87;13.93;;;;;;;0.50;90.67;100466.03;5073379;23;20211;-70
2023/01/26 10:23:26;;;;;;;28.87;13.97;;;;;;;0.47;91.03;100461.81;5087179;23;20206;-69
2023/01/26 10:25:55;;;;;;;31.70;13.63;;;;;;;0.59;90.08;100455.94;5065256;23;20208;-70
2023/01/26 10:28:28;;;;;;;26.47;13.20;;;;;;;0.54;89.40;100446.59;5057745;23;21135;-70
2023/01/26 10:30:56;;;;;;;34.03;14.33;;;;;;;0.37;90.48;100443.09;5064602;23;21721;-69
2023/01/26 10:33:29;;;;;;;27.73;13.30;;;;;;;0.27;91.03;100448.91;5094696;23;20209;-69
2023/01/26 10:35:57;;;;;;;25.53;13.30;;;;;;;0.25;91.45;100442.91;5074736;23;20252;-70
2023/01/26 10:38:32;;;;;;;33.83;13.20;;;;;;;0.26;91.15;100434.97;5083102;23;20210;-72
2023/01/26 10:41:00;;;;;;;27.63;13.90;;;;;;;0.36;90.83;100440.56;5075021;23;20203;-74
2023/01/26 10:43:27;;;;;;;30.03;13.90;;;;;;;0.30;90.69;100441.72;5077621;23;20653;-74
2023/01/26 10:45:53;;;;;;;30.20;13.03;;;;;;;0.34;90.96;100430.19;5082035;23;20200;-67
2023/01/26 10:48:25;;;;;;;27.97;13.47;;;;;;;0.29;90.81;100429.56;5074590;23;21497;-66
2023/01/26 10:50:53;;;;;;;30.57;13.13;;;;;;;0.32;91.46;100424.19;5077938;23;20981;-65
2023/01/26 10:53:27;;;;;;;28.07;13.87;;;;;;;0.32;90.39;100426.78;5110200;23;20201;-68
2023/01/26 10:55:59;;;;;;;28.27;13.70;;;;;;;0.23;90.74;100422.03;5074396;23;21161;-68
2023/01/26 10:58:47;;;;;;;29.63;13.30;;;;;;;0.26;91.22;100413.16;5075589;23;20366;-69
2023/01/26 11:01:17;;;;;;;26.83;12.93;;;;;;;0.27;90.91;100405.25;5091887;23;20656;-67
2023/01/26 11:04:09;;;;;;;28.20;13.00;;;;;;;0.36;90.62;100396.91;5100555;23;20211;-66
2023/01/26 11:06:35;;;;;;;28.10;13.30;;;;;;;0.45;89.90;100395.59;5052054;23;20578;-65
2023/01/26 11:09:10;;;;;;;27.73;13.40;;;;;;;0.58;90.45;100404.47;5065603;23;20214;-67
2023/01/26 11:11:37;;;;;;;26.70;13.33;;;;;;;0.57;89.69;100399.34;5101073;23;25582;-62
2023/01/26 11:14:18;;;;;;;24.57;12.90;;;;;;;0.60;89.76;100396.53;5073728;23;20615;-62
2023/01/26 11:16:48;;;;;;;29.20;13.20;;;;;;;0.61;89.45;100390.41;5095585;23;20285;-63
2023/01/26 11:19:38;;;;;;;27.80;14.07;;;;;;;0.58;89.06;100390.53;5102156;23;20207;-64
2023/01/26 11:22:08;;;;;;;25.33;12.60;;;;;;;0.62;89.07;100381.59;5091379;23;22052;-64
2023/01/26 11:25:02;;;;;;;27.53;14.00;;;;;;;0.58;89.08;100378.28;5069411;23;20226;-64
2023/01/26 11:27:37;;;;;;;29.27;13.03;;;;;;;0.63;89.39;100381.53;5094984;23;21156;-65
2023/01/26 11:30:42;;;;;;;32.23;13.33;;;;;;;0.47;89.96;100371.94;5087073;23;20213;-68
2023/01/26 11:33:19;;;;;;;27.20;13.27;;;;;;;0.46;89.93;100371.09;5086608;23;20203;-69
2023/01/26 11:35:51;;;;;;;26.93;12.57;;;;;;;0.80;89.49;100371.91;5061819;23;20210;-67
2023/01/26 11:38:28;;;;;;;31.80;13.10;;;;;;;0.62;89.42;100371.13;5073571;23;22971;-66
2023/01/26 11:41:16;;;;;;;35.10;14.33;;;;;;;0.74;88.87;100372.22;5078060;23;20679;-65
2023/01/26 11:43:45;;;;;;;32.63;14.23;;;;;;;0.63;89.60;100378.03;5093773;23;20214;-67
2023/01/26 11:46:40;;;;;;;25.90;13.17;;;;;;;0.73;89.07;100365.31;5068848;23;20258;-66
2023/01/26 11:49:14;;;;;;;31.40;13.17;;;;;;;0.55;88.59;100359.28;5110246;23;21415;-66
2023/01/26 11:52:09;;;;;;;26.03;13.33;;;;;;;0.62;88.27;100361.50;5081500;23;20204;-66
2023/01/26 11:55:13;;;;;;;25.80;12.30;;;;;;;0.54;88.48;100352.34;5024429;23;20265;-68
2023/01/26 11:58:01;;;;;;;26.93;13.37;;;;;;;0.57;89.40;100352.19;5082601;23;20613;-66
2023/01/26 12:00:39;;;;;;;29.30;13.63;;;;;;;0.63;88.92;100357.97;5084316;23;21072;-65
2023/01/26 12:03:17;;;;;;;26.37;13.77;;;;;;;0.69;88.73;100351.53;5068577;23;20259;-69